createdAt,value
2017-08-17T00:02:20.325Z,16.10
2017-08-17T00:04:47.910Z,16.10
2017-08-17T00:07:15.480Z,16.10
2017-08-17T00:09:43.134Z,16.00
2017-08-17T00:12:10.716Z,16.00
2017-08-17T00:14:38.308Z,16.00
2017-08-17T00:17:06.085Z,16.10
2017-08-17T00:19:33.669Z,16.10
2017-08-17T00:22:02.072Z,16.10
2017-08-17T00:24:29.709Z,16.10
2017-08-17T00:26:57.297Z,16.20
2017-08-17T00:29:24.888Z,16.30
2017-08-17T00:31:52.524Z,16.30
2017-08-17T00:34:20.883Z,16.30
2017-08-17T00:36:49.237Z,16.30
2017-08-17T00:39:17.832Z,16.30
2017-08-17T00:41:45.417Z,16.30
2017-08-17T00:44:13.005Z,16.30
2017-08-17T00:46:40.650Z,16.30
2017-08-17T00:49:08.231Z,16.30
2017-08-17T00:51:35.828Z,16.30
2017-08-17T00:54:03.749Z,16.40
2017-08-17T00:56:31.318Z,16.50
2017-08-17T00:58:59.672Z,16.50
2017-08-17T01:01:27.300Z,16.50
2017-08-17T01:03:54.888Z,16.50
2017-08-17T01:06:22.475Z,16.40
2017-08-17T01:08:50.220Z,16.40
2017-08-17T01:11:17.808Z,16.50
2017-08-17T01:13:45.392Z,16.40
2017-08-17T01:16:13.150Z,16.50
2017-08-17T01:18:40.754Z,16.40
2017-08-17T01:21:08.353Z,16.50
2017-08-17T01:23:36.007Z,16.50
2017-08-17T01:26:03.580Z,16.50
2017-08-17T01:28:31.179Z,16.50
2017-08-17T01:30:58.824Z,16.50
2017-08-17T01:33:26.394Z,16.50
2017-08-17T01:35:53.985Z,16.50
2017-08-17T01:38:21.846Z,16.40
2017-08-17T01:40:49.436Z,16.50
2017-08-17T01:43:17.044Z,16.50
2017-08-17T01:45:44.699Z,16.50
2017-08-17T01:48:12.281Z,16.50
2017-08-17T01:50:40.645Z,16.50
2017-08-17T01:53:09.058Z,16.50
2017-08-17T01:55:37.650Z,16.50
2017-08-17T01:58:05.221Z,16.50
2017-08-17T02:00:33.663Z,16.50
2017-08-17T02:03:01.230Z,16.50
2017-08-17T02:05:29.580Z,16.50
2017-08-17T02:07:57.209Z,16.50
2017-08-17T02:10:24.789Z,16.50
2017-08-17T02:12:52.380Z,16.50
2017-08-17T02:15:20.023Z,16.50
2017-08-17T02:17:47.626Z,16.50
2017-08-17T02:20:15.976Z,16.50
2017-08-17T02:22:44.398Z,16.40
2017-08-17T02:25:11.983Z,16.40
2017-08-17T02:27:40.318Z,16.40
2017-08-17T02:30:08.498Z,16.40
2017-08-17T02:32:36.870Z,16.30
2017-08-17T02:35:05.211Z,16.30
2017-08-17T02:37:32.852Z,16.30
2017-08-17T02:40:00.451Z,16.30
2017-08-17T02:42:28.874Z,16.20
2017-08-17T02:44:56.522Z,16.20
2017-08-17T02:47:24.114Z,16.20
2017-08-17T02:49:51.740Z,16.20
2017-08-17T02:52:19.366Z,16.20
2017-08-17T02:54:47.733Z,16.20
2017-08-17T02:57:16.099Z,16.20
2017-08-17T02:59:44.501Z,16.10
2017-08-17T03:02:12.102Z,16.10
2017-08-17T03:04:40.466Z,16.20
2017-08-17T03:07:08.864Z,16.20
2017-08-17T03:09:36.461Z,16.20
2017-08-17T03:12:04.802Z,16.20
2017-08-17T03:14:32.419Z,16.20
2017-08-17T03:17:00.025Z,16.20
2017-08-17T03:19:27.599Z,16.20
2017-08-17T03:21:55.229Z,16.30
2017-08-17T03:24:23.353Z,16.30
2017-08-17T03:26:50.942Z,16.30
2017-08-17T03:29:18.729Z,16.30
2017-08-17T03:31:46.321Z,16.30
2017-08-17T03:34:13.919Z,16.30
2017-08-17T03:36:41.566Z,16.30
2017-08-17T03:39:09.170Z,16.20
2017-08-17T03:41:36.774Z,16.20
2017-08-17T03:44:04.400Z,16.10
2017-08-17T03:46:32.035Z,16.10
2017-08-17T03:48:59.629Z,16.10
2017-08-17T03:51:27.261Z,16.00
2017-08-17T03:53:55.620Z,16.00
2017-08-17T03:56:23.976Z,16.00
2017-08-17T03:58:51.612Z,16.00
2017-08-17T04:01:19.212Z,15.90
2017-08-17T04:03:46.791Z,15.90
2017-08-17T04:06:14.438Z,15.90
2017-08-17T04:08:42.071Z,15.90
2017-08-17T04:11:09.686Z,15.90
2017-08-17T04:13:37.325Z,15.80
2017-08-17T04:16:04.930Z,15.90
2017-08-17T04:18:32.515Z,15.90
2017-08-17T04:21:00.210Z,16.00
2017-08-17T04:23:27.817Z,16.00
2017-08-17T04:25:56.461Z,16.10
2017-08-17T04:28:24.265Z,16.10
2017-08-17T04:30:51.856Z,16.20
2017-08-17T04:33:19.474Z,16.30
2017-08-17T04:35:47.148Z,16.40
2017-08-17T04:38:14.738Z,16.40
2017-08-17T04:40:42.311Z,16.60
2017-08-17T04:43:09.974Z,16.60
2017-08-17T04:45:37.568Z,16.70
2017-08-17T04:48:05.153Z,16.90
2017-08-17T04:50:33.821Z,18.10
2017-08-17T04:53:01.422Z,18.10
2017-08-17T04:55:29.284Z,18.70
2017-08-17T04:58:14.475Z,19.10
2017-08-17T05:00:42.842Z,20.40
2017-08-17T05:03:10.418Z,20.40
2017-08-17T05:05:38.044Z,20.80
2017-08-17T05:08:05.648Z,21.20
2017-08-17T05:10:33.245Z,20.90
2017-08-17T05:13:00.886Z,20.90
2017-08-17T05:15:28.482Z,20.20
2017-08-17T05:17:56.066Z,19.50
2017-08-17T05:20:23.910Z,19.00
2017-08-17T05:22:51.508Z,18.70
2017-08-17T05:25:19.102Z,18.40
2017-08-17T05:27:46.766Z,18.20
2017-08-17T05:30:14.368Z,18.10
2017-08-17T05:32:42.711Z,18.00
2017-08-17T05:35:10.357Z,18.00
2017-08-17T05:37:37.955Z,17.90
2017-08-17T05:40:05.531Z,17.90
2017-08-17T05:42:33.173Z,17.90
2017-08-17T05:45:00.756Z,17.90
2017-08-17T05:47:29.112Z,17.90
2017-08-17T05:49:56.744Z,17.90
2017-08-17T05:52:24.328Z,18.00
2017-08-17T05:54:51.930Z,18.10
2017-08-17T05:57:19.578Z,18.10
2017-08-17T05:59:47.155Z,18.10
2017-08-17T06:02:14.764Z,18.10
2017-08-17T06:04:42.402Z,18.10
2017-08-17T06:07:09.978Z,18.00
2017-08-17T06:09:38.332Z,17.60
2017-08-17T06:12:06.728Z,17.50
2017-08-17T06:14:34.324Z,17.50
2017-08-17T06:17:01.904Z,17.50
2017-08-17T06:19:29.785Z,17.40
2017-08-17T06:21:57.377Z,17.50
2017-08-17T06:24:24.981Z,17.40
2017-08-17T06:26:52.603Z,17.50
2017-08-17T06:29:20.174Z,17.40
2017-08-17T06:31:47.760Z,17.30
2017-08-17T06:34:16.147Z,17.30
2017-08-17T06:36:43.723Z,17.30
2017-08-17T06:39:11.303Z,17.30
2017-08-17T06:41:38.934Z,17.30
2017-08-17T06:44:06.520Z,17.30
2017-08-17T06:46:34.100Z,17.30
2017-08-17T06:49:01.711Z,17.20
2017-08-17T06:51:29.310Z,17.20
2017-08-17T06:53:56.908Z,17.20
2017-08-17T06:56:24.626Z,17.20
2017-08-17T06:58:52.977Z,17.20
2017-08-17T07:01:20.572Z,17.20
2017-08-17T07:03:48.218Z,17.40
2017-08-17T07:06:15.813Z,17.60
2017-08-17T07:08:44.176Z,18.20
2017-08-17T07:11:12.602Z,18.50
2017-08-17T07:13:40.177Z,18.40
2017-08-17T07:16:07.764Z,18.50
2017-08-17T07:18:35.418Z,18.50
2017-08-17T07:21:03.021Z,18.40
2017-08-17T07:23:31.389Z,19.20
2017-08-17T07:25:59.794Z,19.90
2017-08-17T07:28:27.380Z,19.80
2017-08-17T07:30:54.972Z,20.20
2017-08-17T07:33:22.605Z,20.70
2017-08-17T07:35:50.185Z,20.90
2017-08-17T07:38:17.772Z,21.00
2017-08-17T07:40:46.276Z,21.10
2017-08-17T07:43:13.874Z,21.30
2017-08-17T07:45:41.476Z,21.60
2017-08-17T07:48:09.134Z,22.10
2017-08-17T07:50:36.724Z,22.10
2017-08-17T07:53:05.087Z,22.60
2017-08-17T07:55:33.481Z,22.80
2017-08-17T07:58:01.069Z,22.80
2017-08-17T08:00:28.671Z,23.00
2017-08-17T08:02:56.283Z,23.10
2017-08-17T08:05:24.644Z,23.30
2017-08-17T08:07:52.992Z,23.30
2017-08-17T08:10:20.643Z,23.30
2017-08-17T08:12:48.999Z,23.50
2017-08-17T08:15:16.571Z,23.50
2017-08-17T08:17:44.434Z,23.40
2017-08-17T08:20:12.020Z,23.50
2017-08-17T08:22:39.612Z,23.70
2017-08-17T08:25:07.231Z,23.70
2017-08-17T08:27:34.820Z,23.80
2017-08-17T08:30:02.391Z,24.00
2017-08-17T08:32:30.030Z,24.20
2017-08-17T08:34:57.603Z,24.10
2017-08-17T08:37:25.198Z,24.00
2017-08-17T08:39:52.837Z,24.20
2017-08-17T08:42:20.424Z,24.40
2017-08-17T08:44:48.008Z,24.80
2017-08-17T08:47:15.622Z,25.00
2017-08-17T08:49:43.208Z,25.30
2017-08-17T08:52:10.794Z,25.30
2017-08-17T08:54:38.417Z,25.30
2017-08-17T08:57:06.004Z,25.40
2017-08-17T08:59:33.604Z,25.30
2017-08-17T09:02:01.246Z,25.10
2017-08-17T09:04:28.832Z,25.10
2017-08-17T09:06:56.402Z,25.20
2017-08-17T09:09:24.024Z,25.20
2017-08-17T09:11:51.622Z,25.30
2017-08-17T09:14:19.204Z,25.40
2017-08-17T09:16:46.824Z,25.60
2017-08-17T09:19:14.412Z,25.40
2017-08-17T09:21:42.012Z,25.20
2017-08-17T09:24:09.657Z,25.10
2017-08-17T09:26:37.241Z,25.10
2017-08-17T09:29:04.838Z,25.20
2017-08-17T09:31:32.467Z,25.30
2017-08-17T09:34:00.052Z,25.40
2017-08-17T09:36:27.650Z,25.30
2017-08-17T09:38:55.270Z,25.40
2017-08-17T09:41:22.852Z,25.60
2017-08-17T09:43:50.448Z,25.70
2017-08-17T09:46:18.837Z,25.90
2017-08-17T09:48:46.403Z,25.80
2017-08-17T09:51:14.015Z,25.90
2017-08-17T09:53:41.875Z,25.90
2017-08-17T09:56:09.464Z,26.00
2017-08-17T09:58:37.043Z,26.00
2017-08-17T10:01:05.442Z,25.60
2017-08-17T10:03:33.040Z,25.50
2017-08-17T10:06:01.380Z,25.30
2017-08-17T10:08:29.017Z,25.30
2017-08-17T10:10:56.614Z,25.20
2017-08-17T10:13:24.198Z,25.20
2017-08-17T10:15:51.837Z,25.10
2017-08-17T10:18:19.508Z,25.10
2017-08-17T10:20:47.138Z,25.10
2017-08-17T10:23:14.772Z,25.30
2017-08-17T10:25:42.356Z,25.60
2017-08-17T10:28:10.710Z,26.00
2017-08-17T10:30:38.339Z,26.00
2017-08-17T10:33:05.907Z,26.10
2017-08-17T10:35:34.273Z,26.20
2017-08-17T10:38:02.714Z,26.20
2017-08-17T10:40:30.296Z,26.20
2017-08-17T10:42:57.899Z,26.10
2017-08-17T10:45:25.557Z,26.10
2017-08-17T10:47:53.144Z,26.00
2017-08-17T10:50:20.733Z,26.00
2017-08-17T10:52:48.369Z,26.00
2017-08-17T10:55:15.948Z,26.10
2017-08-17T10:57:44.296Z,25.80
2017-08-17T11:00:11.925Z,25.80
2017-08-17T11:02:39.505Z,25.80
2017-08-17T11:05:07.848Z,25.80
2017-08-17T11:07:35.473Z,25.80
2017-08-17T11:10:03.066Z,25.80
2017-08-17T11:12:30.776Z,25.80
2017-08-17T11:14:58.383Z,25.80
2017-08-17T11:17:26.058Z,25.70
2017-08-17T11:19:53.647Z,25.70
2017-08-17T11:22:21.268Z,25.80
2017-08-17T11:24:49.617Z,25.90
2017-08-17T11:27:17.182Z,25.90
2017-08-17T11:29:45.572Z,26.00
2017-08-17T11:32:13.142Z,26.00
2017-08-17T11:34:40.780Z,26.20
2017-08-17T11:37:08.413Z,26.40
2017-08-17T11:39:35.993Z,26.50
2017-08-17T11:42:03.585Z,26.50
2017-08-17T11:44:31.226Z,26.60
2017-08-17T11:46:58.800Z,26.60
2017-08-17T11:49:26.385Z,26.70
2017-08-17T11:51:53.995Z,26.80
2017-08-17T11:54:21.581Z,26.70
2017-08-17T11:56:49.170Z,26.70
2017-08-17T11:59:16.849Z,26.60
2017-08-17T12:01:44.420Z,26.60
2017-08-17T12:04:12.758Z,26.80
2017-08-17T12:06:40.376Z,26.80
2017-08-17T12:09:07.955Z,27.00
2017-08-17T12:11:35.550Z,27.10
2017-08-17T12:14:03.190Z,27.10
2017-08-17T12:16:30.776Z,27.00
2017-08-17T12:18:58.339Z,26.80
2017-08-17T12:21:25.958Z,26.70
2017-08-17T12:23:53.615Z,26.70
2017-08-17T12:26:21.199Z,26.60
2017-08-17T12:28:49.600Z,26.40
2017-08-17T12:31:17.180Z,26.40
2017-08-17T12:33:44.755Z,26.20
2017-08-17T12:36:12.388Z,26.10
2017-08-17T12:38:40.728Z,25.80
2017-08-17T12:41:08.307Z,25.70
2017-08-17T12:43:35.937Z,25.70
2017-08-17T12:46:03.532Z,25.60
2017-08-17T12:48:31.103Z,25.50
2017-08-17T12:50:58.736Z,25.50
2017-08-17T12:53:26.325Z,25.40
2017-08-17T12:55:53.908Z,25.40
2017-08-17T12:58:21.541Z,25.30
2017-08-17T13:00:49.129Z,25.30
2017-08-17T13:03:18.080Z,25.20
2017-08-17T13:05:45.886Z,25.10
2017-08-17T13:08:13.479Z,25.00
2017-08-17T13:10:41.075Z,25.00
2017-08-17T13:13:08.717Z,25.00
2017-08-17T13:15:37.064Z,24.90
2017-08-17T13:18:05.420Z,24.90
2017-08-17T13:20:33.820Z,24.80
2017-08-17T13:23:02.125Z,24.80
2017-08-17T13:25:29.725Z,24.70
2017-08-17T13:27:57.342Z,24.70
2017-08-17T13:30:25.717Z,24.40
2017-08-17T13:32:53.367Z,24.40
2017-08-17T13:35:20.988Z,24.40
2017-08-17T13:37:49.336Z,24.30
2017-08-17T13:40:16.931Z,24.30
2017-08-17T13:42:44.561Z,24.30
2017-08-17T13:45:12.153Z,24.30
2017-08-17T13:47:39.733Z,24.30
2017-08-17T13:50:08.683Z,24.20
2017-08-17T13:52:36.936Z,24.20
2017-08-17T13:55:04.512Z,24.10
2017-08-17T13:57:32.166Z,24.00
2017-08-17T14:00:00.510Z,23.80
2017-08-17T14:02:28.103Z,23.80
2017-08-17T14:04:57.951Z,23.60
2017-08-17T14:07:25.636Z,23.40
2017-08-17T14:09:53.227Z,23.30
2017-08-17T14:12:20.848Z,23.20
2017-08-17T14:14:48.425Z,23.10
2017-08-17T14:17:15.999Z,23.10
2017-08-17T14:19:43.845Z,23.20
2017-08-17T14:22:12.192Z,23.30
2017-08-17T14:24:39.782Z,23.30
2017-08-17T14:27:07.404Z,23.30
2017-08-17T14:29:34.988Z,23.40
2017-08-17T14:32:02.554Z,23.40
2017-08-17T14:34:30.248Z,23.40
2017-08-17T14:36:57.830Z,23.40
2017-08-17T14:39:25.399Z,23.30
2017-08-17T14:41:53.022Z,24.50
2017-08-17T14:44:20.608Z,23.20
2017-08-17T14:46:48.215Z,23.20
2017-08-17T14:49:15.828Z,23.10
2017-08-17T14:51:43.404Z,23.10
2017-08-17T14:54:10.996Z,23.00
2017-08-17T14:56:38.676Z,23.00
2017-08-17T14:59:06.298Z,22.90
2017-08-17T15:01:33.900Z,22.90
2017-08-17T15:04:01.529Z,22.80
2017-08-17T15:06:29.101Z,22.80
2017-08-17T15:08:57.454Z,22.70
2017-08-17T15:11:25.096Z,22.70
2017-08-17T15:13:52.676Z,22.70
2017-08-17T15:16:20.259Z,22.60
2017-08-17T15:18:47.894Z,22.50
2017-08-17T15:21:15.494Z,22.40
2017-08-17T15:23:43.083Z,22.30
2017-08-17T15:26:10.701Z,22.30
2017-08-17T15:28:38.283Z,22.30
2017-08-17T15:31:05.863Z,22.20
2017-08-17T15:33:34.281Z,22.10
2017-08-17T15:36:01.860Z,22.10
2017-08-17T15:38:30.306Z,22.00
2017-08-17T15:40:58.103Z,21.90
2017-08-17T15:43:25.686Z,21.80
2017-08-17T15:45:53.290Z,21.70
2017-08-17T15:48:20.934Z,21.70
2017-08-17T15:50:48.523Z,21.60
2017-08-17T15:53:16.176Z,21.50
2017-08-17T15:55:43.813Z,21.40
2017-08-17T15:58:11.400Z,21.30
2017-08-17T16:00:39.782Z,21.10
2017-08-17T16:03:07.548Z,21.20
2017-08-17T16:05:35.134Z,21.10
2017-08-17T16:08:02.703Z,21.00
2017-08-17T16:10:31.107Z,20.90
2017-08-17T16:12:58.700Z,20.80
2017-08-17T16:15:27.066Z,20.70
2017-08-17T16:17:55.647Z,20.70
2017-08-17T16:20:23.240Z,20.70
2017-08-17T16:22:50.820Z,20.70
2017-08-17T16:25:19.207Z,20.70
2017-08-17T16:27:46.801Z,20.60
2017-08-17T16:30:14.389Z,20.60
2017-08-17T16:32:42.050Z,20.60
2017-08-17T16:35:09.627Z,20.50
2017-08-17T16:37:37.226Z,20.40
2017-08-17T16:40:04.864Z,20.30
2017-08-17T16:42:32.434Z,20.30
2017-08-17T16:45:00.037Z,20.20
2017-08-17T16:47:27.656Z,20.20
2017-08-17T16:49:55.240Z,20.20
2017-08-17T16:52:22.835Z,20.20
2017-08-17T16:54:50.495Z,20.10
2017-08-17T16:57:18.076Z,20.10
2017-08-17T16:59:45.672Z,20.10
2017-08-17T17:02:13.304Z,20.00
2017-08-17T17:04:40.877Z,20.00
2017-08-17T17:07:08.469Z,20.00
2017-08-17T17:09:36.078Z,19.90
2017-08-17T17:12:03.668Z,19.90
2017-08-17T17:14:31.266Z,19.90
2017-08-17T17:16:58.893Z,19.80
2017-08-17T17:19:26.513Z,19.70
2017-08-17T17:21:54.090Z,19.60
2017-08-17T17:24:21.720Z,19.60
2017-08-17T17:26:49.295Z,19.60
2017-08-17T17:29:16.893Z,19.50
2017-08-17T17:31:44.552Z,19.50
2017-08-17T17:34:12.149Z,19.50
2017-08-17T17:36:39.723Z,19.50
2017-08-17T17:39:07.357Z,19.50
2017-08-17T17:41:34.935Z,19.40
2017-08-17T17:44:02.571Z,19.40
2017-08-17T17:46:30.228Z,19.40
2017-08-17T17:48:57.828Z,19.40
2017-08-17T17:51:25.430Z,19.40
2017-08-17T17:53:53.834Z,19.30
2017-08-17T17:56:21.435Z,19.30
2017-08-17T17:58:49.030Z,19.30
2017-08-17T18:01:16.713Z,19.30
2017-08-17T18:03:44.318Z,19.30
2017-08-17T18:06:12.354Z,19.30
2017-08-17T18:08:40.036Z,19.30
2017-08-17T18:11:07.669Z,19.20
2017-08-17T18:13:35.252Z,19.20
2017-08-17T18:16:02.874Z,19.30
2017-08-17T18:18:30.476Z,19.20
2017-08-17T18:20:58.147Z,19.20
2017-08-17T18:23:25.789Z,19.20
2017-08-17T18:25:54.604Z,19.20
2017-08-17T18:28:23.160Z,19.10
2017-08-17T18:30:51.294Z,19.10
2017-08-17T18:33:19.767Z,19.10
2017-08-17T18:35:48.378Z,19.10
2017-08-17T18:38:16.916Z,19.10
2017-08-17T18:40:45.195Z,19.10
2017-08-17T18:43:12.902Z,19.10
2017-08-17T18:45:40.653Z,19.10
2017-08-17T18:48:08.618Z,19.00
2017-08-17T18:50:36.245Z,19.00
2017-08-17T18:53:03.858Z,19.00
2017-08-17T18:55:32.562Z,19.00
2017-08-17T18:58:00.743Z,19.00
2017-08-17T19:00:29.517Z,19.00
2017-08-17T19:02:57.112Z,19.00
2017-08-17T19:05:24.736Z,19.00
2017-08-17T19:07:52.390Z,18.90
2017-08-17T19:10:20.747Z,19.00
2017-08-17T19:12:49.328Z,19.00
2017-08-17T19:15:16.993Z,19.00
2017-08-17T19:17:44.576Z,19.00
2017-08-17T19:20:12.255Z,19.00
2017-08-17T19:22:40.766Z,18.90
2017-08-17T19:25:08.348Z,18.90
2017-08-17T19:27:37.205Z,18.90
2017-08-17T19:30:05.219Z,18.90
2017-08-17T19:32:33.090Z,18.90
2017-08-17T19:35:01.058Z,18.90
2017-08-17T19:37:28.705Z,18.90
2017-08-17T19:39:56.297Z,18.90
2017-08-17T19:42:24.140Z,18.90
2017-08-17T19:44:53.501Z,18.90
2017-08-17T19:47:21.738Z,18.80
2017-08-17T19:49:50.153Z,18.80
2017-08-17T19:52:18.379Z,17.40
2017-08-17T19:54:46.002Z,18.80
2017-08-17T19:57:13.605Z,18.80
2017-08-17T19:59:41.218Z,18.80
2017-08-17T20:02:08.795Z,18.80
2017-08-17T20:04:36.407Z,18.80
2017-08-17T20:07:04.196Z,18.70
2017-08-17T20:09:31.771Z,18.70
2017-08-17T20:11:59.356Z,18.70
2017-08-17T20:14:27.764Z,18.70
2017-08-17T20:16:55.375Z,18.70
2017-08-17T20:19:22.976Z,18.70
2017-08-17T20:21:50.625Z,18.70
2017-08-17T20:24:18.217Z,18.70
2017-08-17T20:26:45.817Z,18.70
2017-08-17T20:29:13.443Z,18.70
2017-08-17T20:31:41.028Z,18.70
2017-08-17T20:34:08.637Z,18.70
2017-08-17T20:36:36.293Z,18.70
2017-08-17T20:39:03.895Z,18.70
2017-08-17T20:41:31.493Z,18.60
2017-08-17T20:44:00.167Z,18.60
2017-08-17T20:46:27.747Z,18.60
2017-08-17T20:48:55.333Z,18.60
2017-08-17T20:51:22.975Z,18.60
2017-08-17T20:53:50.559Z,18.60
2017-08-17T20:56:18.921Z,18.60
2017-08-17T20:58:47.350Z,18.60
2017-08-17T21:01:14.932Z,18.60
2017-08-17T21:03:42.516Z,18.60
2017-08-17T21:06:10.169Z,18.60
2017-08-17T21:08:37.755Z,18.60
2017-08-17T21:11:06.122Z,18.60
2017-08-17T21:13:33.749Z,18.60
2017-08-17T21:16:01.331Z,18.60
2017-08-17T21:18:28.903Z,18.60
2017-08-17T21:20:56.519Z,18.60
2017-08-17T21:23:24.100Z,18.60
2017-08-17T21:25:51.702Z,18.60
2017-08-17T21:28:19.340Z,18.60
2017-08-17T21:30:46.960Z,18.60
2017-08-17T21:33:14.547Z,18.60
2017-08-17T21:35:42.190Z,18.60
2017-08-17T21:38:09.780Z,18.60
2017-08-17T21:40:37.393Z,18.60
2017-08-17T21:43:05.017Z,18.60
2017-08-17T21:45:32.598Z,18.60
2017-08-17T21:48:00.186Z,18.60
2017-08-17T21:50:27.811Z,18.50
2017-08-17T21:52:55.408Z,18.60
2017-08-17T21:55:23.003Z,18.60
2017-08-17T21:57:50.652Z,18.60
2017-08-17T22:00:18.249Z,18.50
2017-08-17T22:02:45.851Z,18.50
2017-08-17T22:05:13.507Z,18.50
2017-08-17T22:07:41.867Z,18.50
2017-08-17T22:10:10.257Z,18.50
2017-08-17T22:12:38.100Z,18.50
2017-08-17T22:15:05.692Z,18.50
2017-08-17T22:17:33.267Z,18.50
2017-08-17T22:20:01.685Z,18.50
2017-08-17T22:22:29.273Z,18.40
2017-08-17T22:24:57.628Z,18.50
2017-08-17T22:27:25.258Z,18.50
2017-08-17T22:29:52.854Z,18.50
2017-08-17T22:32:20.458Z,18.50
2017-08-17T22:34:48.097Z,18.50
2017-08-17T22:37:15.674Z,18.40
2017-08-17T22:39:43.249Z,18.40
2017-08-17T22:42:10.872Z,18.50
2017-08-17T22:44:38.458Z,18.50
2017-08-17T22:47:06.044Z,18.50
2017-08-17T22:49:34.614Z,18.50
2017-08-17T22:52:02.195Z,18.40
2017-08-17T22:54:29.833Z,18.40
2017-08-17T22:56:57.659Z,18.40
2017-08-17T22:59:25.244Z,18.40
2017-08-17T23:01:52.837Z,18.40
2017-08-17T23:04:21.218Z,18.40
2017-08-17T23:06:48.818Z,18.30
2017-08-17T23:09:16.408Z,18.30
2017-08-17T23:11:44.056Z,18.30
2017-08-17T23:14:11.635Z,18.30
2017-08-17T23:16:39.218Z,18.30
2017-08-17T23:19:07.598Z,18.30
2017-08-17T23:21:35.183Z,18.30
2017-08-17T23:24:02.758Z,18.30
2017-08-17T23:26:30.375Z,18.30
2017-08-17T23:28:57.965Z,18.30
2017-08-17T23:31:25.557Z,18.30
2017-08-17T23:33:53.215Z,18.30
2017-08-17T23:36:21.555Z,18.30
2017-08-17T23:38:49.133Z,18.30
2017-08-17T23:41:16.777Z,18.30
2017-08-17T23:43:44.375Z,18.20
2017-08-17T23:46:11.961Z,18.20
2017-08-17T23:48:39.766Z,18.20
2017-08-17T23:51:07.362Z,18.20
2017-08-17T23:53:34.966Z,18.20
2017-08-17T23:56:02.617Z,18.20
2017-08-17T23:58:30.198Z,18.20
